Jamesville, New York
Current Conditions -  °F | °C
As of 6:54 PM on Tuesday 25 Nov 2014 (Local Time) from KSYR Reporting Station
Overcast Overcast  
Wind Chill: 39°   Ceiling: 7000
Heat Index: 44°   Visibility: 10mi
Dew Point: 26°   Wind: 10mph
Humidity: 49%   Direction: 270°W
Pressure: 30.06"   Gusts: NA
Location:  42.99°N, 76.07°W
Report Text: KSYR 252354Z 27009KT 10SM BKN070 OVC170 07/M03 A3006 RMK AO2 SLP177 BKN V OVC T00671033 10100 20056 51036
Loading
Personal Weather Stations






























Interactive Weather Map New forecast layout! Learn more

10-Day Weather Forecast

Advertisements
Track Severe Weather on mobile